Overview Statistics Trail Chart Weather Telemetry Raw packets
 

This is the latest recevied packets stored in our database for station/object 9A3XK. If no packets are shown the sender has not sent any packets the latest 24 hours.

If you compare the raw packets with similar data from other websites it may differ (especially the path), the reason is that we are not collecting packets from the same APRS-IS servers. Each APRS-IS server performes duplicate filtering, and which packet that is considered to be a duplicate may differ depending on which APRS-IS server you receive your data from.

<< 1 2 3 4 >>

1788585341: 9A3XK>APMI06,WIDE2-2,qAO,HG3PMF-10:!4522.10N/01814.60EIiGate&W2 DJAKOVO CRLNet.108 http://elco.hr

1788585094: 9A3XK>APMI06,TCPIP*,qAC,T2FINLAND:T#061,029,024,006,17836,070,00000000

1788584795: 9A3XK>APMI06,TCPIP*,qAC,T2FINLAND:T#060,027,024,004,17837,070,00000000

1788584494: 9A3XK>APMI06,TCPIP*,qAC,T2FINLAND:T#059,043,024,006,17833,070,00000000

1788584460: 9A3XK>BEACON,TCPIP*,qAC,T2FINLAND:Power 9W Gain 3dB Height 240m Ant omni

1788584445: 9A3XK>APMI06,TCPIP*,qAC,T2FINLAND:>http://crlnet.it - WX3IN1 Plus 2.0 - v1.13 - 33.5C - 12.0V

1788584439: 9A3XK>APMI06,TCPIP*,qAC,T2FINLAND:!4522.10N/01814.60EIiGate&W2 DJAKOVO CRLNet.108 http://elco.hr

1788584316: 9A3XK>APMI06,YU0XFG-2,WIDE1*,qAR,YU7OR-1:T#058,043,025,006,17840,070,00000000

1788584195: 9A3XK>APMI06,TCPIP*,qAC,T2FINLAND:T#057,038,024,004,17836,070,00000000

1788584082: 9A3XK>APMI06,WIDE2-2,qAO,HG3PMF-10:!4522.10N/01814.60EIiGate&W2 DJAKOVO CRLNet.108 http://elco.hr

1788583894: 9A3XK>APMI06,TCPIP*,qAC,T2FINLAND:T#056,029,025,006,17842,070,00000000

1788583594: 9A3XK>APMI06,TCPIP*,qAC,T2FINLAND:T#055,035,026,004,17844,070,00000000

1788583294: 9A3XK>APMI06,TCPIP*,qAC,T2FINLAND:T#054,043,028,007,17841,070,00000000

1788583261: 9A3XK>BEACON,WIDE1-1,qAO,HG3PMF-10:Power 9W Gain 3dB Height 240m Ant omni

1788583251: 9A3XK>BEACON,WIDE1-1,qAO,HG3PMF-10:CRLNet.108 - SysOp 9a3XK & 9a7kxp-Internet via DJWIRELES http://djw.hr/

1788582995: 9A3XK>APMI06,TCPIP*,qAC,T2FINLAND:T#053,041,027,002,17846,070,00000000

1788582822: 9A3XK>APMI06,WIDE2-2,qAO,HG3PMF-10:!4522.10N/01814.60EIiGate&W2 DJAKOVO CRLNet.108 http://elco.hr

1788582695: 9A3XK>APMI06,TCPIP*,qAC,T2FINLAND:T#052,045,028,007,17847,070,00000000

1788582688: 9A3XK>APMI06,WIDE1-1,qAO,HG3PMF-10::9A3XK :EQNS.0,1,0,0,10,0,0,1,0,0,0.001,0,0,1,0

1788582688: 9A3XK>APMI06,WIDE1-1,qAO,HG3PMF-10::9A3XK :BITS.11111111,DJAKOVO 5' Stats.

1788582686: 9A3XK>APMI06,WIDE1-1,qAO,HG3PMF-10::9A3XK :PARM.Rx10m,Rx1h,Dg10m,DgR,Eff,O1,O2,O3,O4,I1,I2,I3,I4

1788582686: 9A3XK>APMI06,WIDE1-1,qAO,HG3PMF-10::9A3XK :UNIT.Pkt,Pkt,Pkt,Pcnt,Pcnt,On,On,On,On,Hi,Hi,Hi,Hi

1788582660: 9A3XK>BEACON,TCPIP*,qAC,T2FINLAND:Power 9W Gain 3dB Height 240m Ant omni

1788582645: 9A3XK>APMI06,TCPIP*,qAC,T2FINLAND:>http://crlnet.it - WX3IN1 Plus 2.0 - v1.13 - 34.3C - 12.0V

1788582640: 9A3XK>APMI06,TCPIP*,qAC,T2FINLAND:!4522.10N/01814.60EIiGate&W2 DJAKOVO CRLNet.108 http://elco.hr